Time,TemperatureF,DewpointF,PressureIn,WindDirection,WindDirectionDegrees,WindSpeedMPH,WindSpeedGustMPH,Humidity,HourlyPrecipIn,Conditions,Clouds,dailyrainin,SolarRadiationWatts/m^2,SoftwareType,DateUTC
2013-05-25 00:02:00,55.0,29.0,-100.00,South,181,4.0,6.0,37,0.00,,,0.00,0.000000,,2013-05-25 05:02:00,
2013-05-25 00:22:00,53.0,29.0,-100.00,SSE,155,4.0,8.0,40,0.00,,,0.00,0.000000,,2013-05-25 05:22:00,
2013-05-25 00:32:00,53.0,29.0,-100.00,SSE,155,4.0,8.0,40,0.00,,,0.00,0.000000,,2013-05-25 05:32:00,
2013-05-25 00:43:00,53.0,29.0,-100.00,SSE,155,4.0,8.0,40,0.00,,,0.00,0.000000,,2013-05-25 05:43:00,
2013-05-25 00:52:00,53.0,29.0,-100.00,SSE,155,4.0,8.0,40,0.00,,,0.00,0.000000,,2013-05-25 05:52:00,
2013-05-25 01:02:00,53.0,29.0,-100.00,SSE,155,4.0,8.0,40,0.00,,,0.00,0.000000,,2013-05-25 06:02:00,
2013-05-25 01:22:00,52.0,31.0,-100.00,South,170,4.0,7.0,45,0.00,,,0.00,0.000000,,2013-05-25 06:22:00,
2013-05-25 01:32:00,52.0,31.0,-100.00,South,170,4.0,7.0,45,0.00,,,0.00,0.000000,,2013-05-25 06:32:00,
2013-05-25 01:42:00,52.0,31.0,-100.00,South,170,4.0,7.0,45,0.00,,,0.00,0.000000,,2013-05-25 06:42:00,
2013-05-25 01:52:00,52.0,31.0,-100.00,South,170,4.0,7.0,45,0.00,,,0.00,0.000000,,2013-05-25 06:52:00,
2013-05-25 02:01:00,52.0,31.0,-100.00,South,170,4.0,7.0,45,0.00,,,0.00,0.000000,,2013-05-25 07:01:00,
2013-05-25 02:22:00,50.0,31.0,-100.00,SE,137,5.0,9.0,48,0.00,,,0.00,0.000000,,2013-05-25 07:22:00,
2013-05-25 02:32:00,50.0,31.0,-100.00,SE,137,5.0,9.0,48,0.00,,,0.00,0.000000,,2013-05-25 07:32:00,
2013-05-25 02:42:00,50.0,31.0,-100.00,SE,137,5.0,9.0,48,0.00,,,0.00,0.000000,,2013-05-25 07:42:00,
2013-05-25 02:52:00,50.0,31.0,-100.00,SE,137,5.0,9.0,48,0.00,,,0.00,0.000000,,2013-05-25 07:52:00,
2013-05-25 03:02:00,50.0,31.0,-100.00,SE,137,5.0,9.0,48,0.00,,,0.00,0.000000,,2013-05-25 08:02:00,
2013-05-25 03:23:00,47.0,30.0,-100.00,ESE,113,4.0,7.0,51,0.00,,,0.00,0.000000,,2013-05-25 08:23:00,
2013-05-25 03:32:00,47.0,30.0,-100.00,ESE,113,4.0,7.0,51,0.00,,,0.00,0.000000,,2013-05-25 08:32:00,
2013-05-25 03:42:00,47.0,30.0,-100.00,ESE,113,4.0,7.0,51,0.00,,,0.00,0.000000,,2013-05-25 08:42:00,
2013-05-25 03:52:00,47.0,30.0,-100.00,ESE,113,4.0,7.0,51,0.00,,,0.00,0.000000,,2013-05-25 08:52:00,
2013-05-25 04:02:00,47.0,30.0,-100.00,ESE,113,4.0,7.0,51,0.00,,,0.00,0.000000,,2013-05-25 09:02:00,
2013-05-25 04:22:00,46.0,28.0,-100.00,East,88,4.0,6.0,50,0.00,,,0.00,0.000000,,2013-05-25 09:22:00,
2013-05-25 04:33:00,46.0,28.0,-100.00,East,88,4.0,6.0,50,0.00,,,0.00,0.000000,,2013-05-25 09:33:00,
2013-05-25 04:43:00,46.0,28.0,-100.00,East,88,4.0,6.0,50,0.00,,,0.00,0.000000,,2013-05-25 09:43:00,
2013-05-25 04:53:00,46.0,28.0,-100.00,East,88,4.0,6.0,50,0.00,,,0.00,0.000000,,2013-05-25 09:53:00,
2013-05-25 05:02:00,46.0,28.0,-100.00,East,88,4.0,6.0,50,0.00,,,0.00,0.000000,,2013-05-25 10:02:00,
2013-05-25 05:23:00,44.0,29.0,-100.00,East,91,5.0,7.0,55,0.00,,,0.00,0.000000,,2013-05-25 10:23:00,
2013-05-25 05:33:00,44.0,29.0,-100.00,East,91,5.0,7.0,55,0.00,,,0.00,0.000000,,2013-05-25 10:33:00,
2013-05-25 05:42:00,44.0,29.0,-100.00,East,91,5.0,7.0,55,0.00,,,0.00,0.000000,,2013-05-25 10:42:00,
2013-05-25 05:52:00,44.0,29.0,-100.00,East,91,5.0,7.0,55,0.00,,,0.00,0.000000,,2013-05-25 10:52:00,
2013-05-25 06:02:00,44.0,29.0,-100.00,East,91,5.0,7.0,55,0.00,,,0.00,0.000000,,2013-05-25 11:02:00,
2013-05-25 06:22:00,45.0,30.0,-100.00,East,98,4.0,8.0,56,0.00,,,0.00,12.000000,,2013-05-25 11:22:00,
2013-05-25 06:32:00,45.0,30.0,-100.00,East,98,4.0,8.0,56,0.00,,,0.00,12.000000,,2013-05-25 11:32:00,
2013-05-25 06:42:00,45.0,30.0,-100.00,East,98,4.0,8.0,56,0.00,,,0.00,12.000000,,2013-05-25 11:42:00,
2013-05-25 06:52:00,45.0,30.0,-100.00,East,98,4.0,8.0,56,0.00,,,0.00,12.000000,,2013-05-25 11:52:00,
2013-05-25 07:01:00,45.0,30.0,-100.00,East,98,4.0,8.0,56,0.00,,,0.00,12.000000,,2013-05-25 12:01:00,
2013-05-25 07:22:00,47.0,32.0,-100.00,ESE,115,3.0,6.0,56,0.00,,,0.00,67.000000,,2013-05-25 12:22:00,
2013-05-25 07:32:00,47.0,32.0,-100.00,ESE,115,3.0,6.0,56,0.00,,,0.00,67.000000,,2013-05-25 12:32:00,
2013-05-25 07:42:00,47.0,32.0,-100.00,ESE,115,3.0,6.0,56,0.00,,,0.00,67.000000,,2013-05-25 12:42:00,
2013-05-25 07:52:00,47.0,32.0,-100.00,ESE,115,3.0,6.0,56,0.00,,,0.00,67.000000,,2013-05-25 12:52:00,
2013-05-25 08:02:00,47.0,32.0,-100.00,ESE,115,3.0,6.0,56,0.00,,,0.00,67.000000,,2013-05-25 13:02:00,
2013-05-25 08:22:00,50.0,34.0,-100.00,ESE,108,4.0,7.0,53,0.00,,,0.00,141.000000,,2013-05-25 13:22:00,
2013-05-25 08:32:00,50.0,34.0,-100.00,ESE,108,4.0,7.0,53,0.00,,,0.00,141.000000,,2013-05-25 13:32:00,
2013-05-25 08:42:00,50.0,34.0,-100.00,ESE,108,4.0,7.0,53,0.00,,,0.00,141.000000,,2013-05-25 13:42:00,
2013-05-25 08:52:00,50.0,34.0,-100.00,ESE,108,4.0,7.0,53,0.00,,,0.00,141.000000,,2013-05-25 13:52:00,
2013-05-25 09:02:00,50.0,34.0,-100.00,ESE,108,4.0,7.0,53,0.00,,,0.00,141.000000,,2013-05-25 14:02:00,
2013-05-25 09:22:00,54.0,34.0,-100.00,SE,127,5.0,8.0,47,0.00,,,0.00,210.000000,,2013-05-25 14:22:00,
2013-05-25 09:32:00,54.0,34.0,-100.00,SE,127,5.0,8.0,47,0.00,,,0.00,210.000000,,2013-05-25 14:32:00,
2013-05-25 09:42:00,54.0,34.0,-100.00,SE,127,5.0,8.0,47,0.00,,,0.00,210.000000,,2013-05-25 14:42:00,
2013-05-25 09:52:00,54.0,34.0,-100.00,SE,127,5.0,8.0,47,0.00,,,0.00,210.000000,,2013-05-25 14:52:00,
2013-05-25 10:01:00,54.0,34.0,-100.00,SE,127,5.0,8.0,47,0.00,,,0.00,210.000000,,2013-05-25 15:01:00,
2013-05-25 10:22:00,59.0,35.0,-100.00,SE,125,5.0,11.0,40,0.00,,,0.00,440.000000,,2013-05-25 15:22:00,
2013-05-25 10:33:00,59.0,35.0,-100.00,SE,125,5.0,11.0,40,0.00,,,0.00,440.000000,,2013-05-25 15:33:00,
2013-05-25 10:43:00,59.0,35.0,-100.00,SE,125,5.0,11.0,40,0.00,,,0.00,440.000000,,2013-05-25 15:43:00,
2013-05-25 10:53:00,59.0,35.0,-100.00,SE,125,5.0,11.0,40,0.00,,,0.00,440.000000,,2013-05-25 15:53:00,
2013-05-25 11:03:00,59.0,35.0,-100.00,SE,125,5.0,11.0,40,0.00,,,0.00,440.000000,,2013-05-25 16:03:00,
2013-05-25 11:23:00,61.0,36.0,-100.00,SE,124,5.0,9.0,39,0.00,,,0.00,357.000000,,2013-05-25 16:23:00,
2013-05-25 11:33:00,61.0,36.0,-100.00,SE,124,5.0,9.0,39,0.00,,,0.00,357.000000,,2013-05-25 16:33:00,
2013-05-25 11:42:00,61.0,36.0,-100.00,SE,124,5.0,9.0,39,0.00,,,0.00,357.000000,,2013-05-25 16:42:00,
2013-05-25 11:52:00,61.0,36.0,-100.00,SE,124,5.0,9.0,39,0.00,,,0.00,357.000000,,2013-05-25 16:52:00,
2013-05-25 12:02:00,61.0,36.0,-100.00,SE,124,5.0,9.0,39,0.00,,,0.00,357.000000,,2013-05-25 17:02:00,
2013-05-25 12:22:00,61.0,36.0,-100.00,SE,141,7.0,12.0,39,0.00,,,0.00,323.000000,,2013-05-25 17:22:00,
2013-05-25 12:33:00,61.0,36.0,-100.00,SE,141,7.0,12.0,39,0.00,,,0.00,323.000000,,2013-05-25 17:33:00,
2013-05-25 12:42:00,61.0,36.0,-100.00,SE,141,7.0,12.0,39,0.00,,,0.00,323.000000,,2013-05-25 17:42:00,
2013-05-25 12:52:00,61.0,36.0,-100.00,SE,141,7.0,12.0,39,0.00,,,0.00,323.000000,,2013-05-25 17:52:00,
2013-05-25 13:01:00,61.0,36.0,-100.00,SE,141,7.0,12.0,39,0.00,,,0.00,323.000000,,2013-05-25 18:01:00,
2013-05-25 13:22:00,62.0,35.0,-100.00,ESE,121,7.0,12.0,36,0.00,,,-99.99,307.000000,,2013-05-25 18:22:00,
2013-05-25 13:32:00,62.0,35.0,-100.00,ESE,121,7.0,12.0,36,0.00,,,-99.99,307.000000,,2013-05-25 18:32:00,
2013-05-25 13:42:00,62.0,35.0,-100.00,ESE,121,7.0,12.0,36,0.00,,,-99.99,307.000000,,2013-05-25 18:42:00,
2013-05-25 13:52:00,62.0,35.0,-100.00,ESE,121,7.0,12.0,36,0.00,,,-99.99,307.000000,,2013-05-25 18:52:00,
2013-05-25 14:01:00,62.0,35.0,-100.00,ESE,121,7.0,12.0,36,0.00,,,-99.99,307.000000,,2013-05-25 19:01:00,
2013-05-25 14:22:00,64.0,34.0,-100.00,SSE,162,8.0,16.0,33,0.00,,,0.00,444.000000,,2013-05-25 19:22:00,
2013-05-25 14:32:00,64.0,34.0,-100.00,SSE,162,8.0,16.0,33,0.00,,,0.00,444.000000,,2013-05-25 19:32:00,
2013-05-25 14:42:00,64.0,34.0,-100.00,SSE,162,8.0,16.0,33,0.00,,,0.00,444.000000,,2013-05-25 19:42:00,
2013-05-25 14:52:00,64.0,34.0,-100.00,SSE,162,8.0,16.0,33,0.00,,,0.00,444.000000,,2013-05-25 19:52:00,
2013-05-25 15:02:00,64.0,34.0,-100.00,SSE,162,8.0,16.0,33,0.00,,,0.00,444.000000,,2013-05-25 20:02:00,
2013-05-25 15:22:00,64.0,32.0,-100.00,SE,128,9.0,16.0,30,0.00,,,0.00,435.000000,,2013-05-25 20:22:00,
2013-05-25 15:32:00,64.0,32.0,-100.00,SE,128,9.0,16.0,30,0.00,,,0.00,435.000000,,2013-05-25 20:32:00,
2013-05-25 15:42:00,64.0,32.0,-100.00,SE,128,9.0,16.0,30,0.00,,,0.00,435.000000,,2013-05-25 20:42:00,
2013-05-25 15:52:00,64.0,32.0,-100.00,SE,128,9.0,16.0,30,0.00,,,0.00,435.000000,,2013-05-25 20:52:00,
2013-05-25 16:02:00,64.0,32.0,-100.00,SE,128,9.0,16.0,30,0.00,,,0.00,435.000000,,2013-05-25 21:02:00,
2013-05-25 16:22:00,65.0,34.0,-100.00,SE,141,7.0,15.0,31,0.00,,,0.00,418.000000,,2013-05-25 21:22:00,
2013-05-25 16:33:00,65.0,34.0,-100.00,SE,141,7.0,15.0,31,0.00,,,0.00,418.000000,,2013-05-25 21:33:00,
2013-05-25 16:43:00,65.0,34.0,-100.00,SE,141,7.0,15.0,31,0.00,,,0.00,418.000000,,2013-05-25 21:43:00,
2013-05-25 16:53:00,65.0,34.0,-100.00,SE,141,7.0,15.0,31,0.00,,,0.00,418.000000,,2013-05-25 21:53:00,
2013-05-25 17:03:00,65.0,34.0,-100.00,SE,141,7.0,15.0,31,0.00,,,0.00,418.000000,,2013-05-25 22:03:00,
2013-05-25 17:23:00,66.0,34.0,-100.00,SE,133,6.0,13.0,30,0.00,,,0.00,428.000000,,2013-05-25 22:23:00,
2013-05-25 17:33:00,66.0,34.0,-100.00,SE,133,6.0,13.0,30,0.00,,,0.00,428.000000,,2013-05-25 22:33:00,
2013-05-25 17:42:00,66.0,34.0,-100.00,SE,133,6.0,13.0,30,0.00,,,0.00,428.000000,,2013-05-25 22:42:00,
2013-05-25 17:52:00,66.0,34.0,-100.00,SE,133,6.0,13.0,30,0.00,,,0.00,428.000000,,2013-05-25 22:52:00,
2013-05-25 18:02:00,66.0,34.0,-100.00,SE,133,6.0,13.0,30,0.00,,,0.00,428.000000,,2013-05-25 23:02:00,
2013-05-25 18:22:00,64.0,32.0,-100.00,ESE,120,5.0,12.0,30,0.00,,,0.00,325.000000,,2013-05-25 23:22:00,
2013-05-25 18:32:00,64.0,32.0,-100.00,ESE,120,5.0,12.0,30,0.00,,,0.00,325.000000,,2013-05-25 23:32:00,
2013-05-25 18:42:00,64.0,32.0,-100.00,ESE,120,5.0,12.0,30,0.00,,,0.00,325.000000,,2013-05-25 23:42:00,
2013-05-25 18:52:00,64.0,32.0,-100.00,ESE,120,5.0,12.0,30,0.00,,,0.00,325.000000,,2013-05-25 23:52:00,
2013-05-25 19:01:00,64.0,32.0,-100.00,ESE,120,5.0,12.0,30,0.00,,,0.00,325.000000,,2013-05-26 00:01:00,
2013-05-25 19:22:00,63.0,34.0,-100.00,ESE,111,6.0,10.0,34,0.00,,,0.00,199.000000,,2013-05-26 00:22:00,
2013-05-25 19:32:00,63.0,34.0,-100.00,ESE,111,6.0,10.0,34,0.00,,,0.00,199.000000,,2013-05-26 00:32:00,
2013-05-25 19:43:00,63.0,34.0,-100.00,ESE,111,6.0,10.0,34,0.00,,,0.00,199.000000,,2013-05-26 00:43:00,
2013-05-25 19:52:00,63.0,34.0,-100.00,ESE,111,6.0,10.0,34,0.00,,,0.00,199.000000,,2013-05-26 00:52:00,
2013-05-25 20:01:00,63.0,34.0,-100.00,ESE,111,6.0,10.0,34,0.00,,,0.00,199.000000,,2013-05-26 01:01:00,
2013-05-25 20:21:00,60.0,36.0,-100.00,SE,125,6.0,12.0,40,0.00,,,0.00,129.000000,,2013-05-26 01:21:00,
2013-05-25 20:32:00,60.0,36.0,-100.00,SE,125,6.0,12.0,40,0.00,,,0.00,129.000000,,2013-05-26 01:32:00,
2013-05-25 20:42:00,60.0,36.0,-100.00,SE,125,6.0,12.0,40,0.00,,,0.00,129.000000,,2013-05-26 01:42:00,
2013-05-25 20:53:00,60.0,36.0,-100.00,SE,125,6.0,12.0,40,0.00,,,0.00,129.000000,,2013-05-26 01:53:00,
2013-05-25 21:02:00,60.0,36.0,-100.00,SE,125,6.0,12.0,40,0.00,,,0.00,129.000000,,2013-05-26 02:02:00,
2013-05-25 21:21:00,56.0,34.0,-100.00,ESE,123,7.0,14.0,44,0.00,,,0.00,11.000000,,2013-05-26 02:21:00,
2013-05-25 21:32:00,56.0,34.0,-100.00,ESE,123,7.0,14.0,44,0.00,,,0.00,11.000000,,2013-05-26 02:32:00,
2013-05-25 21:42:00,56.0,34.0,-100.00,ESE,123,7.0,14.0,44,0.00,,,0.00,11.000000,,2013-05-26 02:42:00,
2013-05-25 21:52:00,56.0,34.0,-100.00,ESE,123,7.0,14.0,44,0.00,,,0.00,11.000000,,2013-05-26 02:52:00,
2013-05-25 22:01:00,56.0,34.0,-100.00,ESE,123,7.0,14.0,44,0.00,,,0.00,11.000000,,2013-05-26 03:01:00,
2013-05-25 22:22:00,52.0,34.0,-100.00,SE,129,6.0,11.0,50,0.00,,,0.00,0.000000,,2013-05-26 03:22:00,
2013-05-25 22:33:00,52.0,34.0,-100.00,SE,129,6.0,11.0,50,0.00,,,0.00,0.000000,,2013-05-26 03:33:00,
2013-05-25 22:43:00,52.0,34.0,-100.00,SE,129,6.0,11.0,50,0.00,,,0.00,0.000000,,2013-05-26 03:43:00,
2013-05-25 22:53:00,52.0,34.0,-100.00,SE,129,6.0,11.0,50,0.00,,,0.00,0.000000,,2013-05-26 03:53:00,
2013-05-25 23:02:00,52.0,34.0,-100.00,SE,129,6.0,11.0,50,0.00,,,0.00,0.000000,,2013-05-26 04:02:00,
2013-05-25 23:23:00,49.0,30.0,-100.00,SE,139,5.0,13.0,48,0.00,,,0.00,0.000000,,2013-05-26 04:23:00,
2013-05-25 23:33:00,49.0,30.0,-100.00,SE,139,5.0,13.0,48,0.00,,,0.00,0.000000,,2013-05-26 04:33:00,
2013-05-25 23:42:00,49.0,30.0,-100.00,SE,139,5.0,13.0,48,0.00,,,0.00,0.000000,,2013-05-26 04:42:00,
2013-05-25 23:52:00,49.0,30.0,-100.00,SE,139,5.0,13.0,48,0.00,,,0.00,0.000000,,2013-05-26 04:52:00,